• Join FlightAware (Why Join?)
  • Login
  • US Flag 
Rudolph Flight #1: Arrived! 
02:17AM EST


 

Airport Tracker/Info


-or-


 

Live Flight TrackerFlight Track Log ✈ UAL4431 ✈ 11-Apr-2013 ✈ KIAH - KTUL

Flight Track Log - Related Links

Times and Time Zones

All times are in EDT time to prevent confusion due to time zone crossing. See the UAL4431 flight status page for this flight to view local times or setup timezone preferences in your user account.

Time Position Orientation Groundspeed Altitude Reporting Facility
EDT Latitude Longitude Course Direction KTS MPH feet Rate Location/Type
01:02PM 29.9817 -95.3556 337° Northwest 153 176 600  Level Houston Center
01:02PM 30.0164 -95.3683 342° North 194 223 1,800 1,860 Climbing Houston Center
01:03PM 30.0728 -95.3856 345° North 234 269 3,700 2,220 Climbing Houston Center
01:05PM 30.3429 -95.5456 332° Northwest  Level FlightAware Approximate
01:05PM 30.1433 -95.4181 338° Northwest 229 264 6,500  Level Houston Center
01:06PM 30.4338 -95.5965 334° Northwest  Level FlightAware Approximate
01:06PM 30.2031 -95.4556 332° Northwest 242 278 8,900  Level Houston Center
01:07PM 30.5254 -95.6460 337° Northwest  Level FlightAware Approximate
01:07PM 30.2656 -95.4922 333° Northwest 248 285 10,700  Level Houston Center
01:08PM 30.3392 -95.5364 333° Northwest 284 327 11,300 840 Climbing Houston Center
01:09PM 30.4217 -95.5853 333° Northwest 324 373 12,500 1,620 Climbing Houston Center
01:10PM 30.5197 -95.6433 333° Northwest 330 380 14,700 1,620 Climbing Houston Center
01:11PM 30.6047 -95.6892 335° Northwest 337 388 15,900 1,200 Climbing Houston Center
01:12PM 30.6975 -95.7381 336° Northwest 349 402 17,300 1,260 Climbing Houston Center
01:13PM 30.7864 -95.7867 335° Northwest 352 405 18,600 1,140 Climbing Houston Center
01:14PM 30.8789 -95.8361 335° Northwest 366 421 19,700 1,080 Climbing Houston Center
01:15PM 30.9736 -95.8864 336° Northwest 371 427 20,900 1,080 Climbing Houston Center
01:16PM 31.0714 -95.9392 335° Northwest 382 440 22,000 1,080 Climbing Houston Center
01:16PM 31.1278 -95.9669 337° Northwest 379 436 22,600 1,620 Climbing Fort Worth Center
01:17PM 31.2325 -95.9944 347° North 385 443 24,500 1,680 Climbing Fort Worth Center
01:18PM 31.3372 -96.0172 349° North 380 437 26,000 1,680 Climbing Fort Worth Center
01:19PM 31.4397 -96.0425 348° North 369 425 27,900 2,040 Climbing Fort Worth Center
01:20PM 31.5339 -96.0631 349° North 352 405 30,100 1,740 Climbing Fort Worth Center
01:21PM 31.6239 -96.0861 348° North 333 383 31,400 1,140 Climbing Fort Worth Center
01:22PM 31.7181 -96.1067 349° North 333 383 32,400 780 Climbing Fort Worth Center
01:23PM 31.8186 -96.1297 349° North 333 383 33,000 300 Climbing Fort Worth Center
01:24PM 31.9231 -96.1578 347° North 356 410 33,000  Level Fort Worth Center
01:25PM 32.0342 -96.1831 349° North 382 440 33,000  Level Fort Worth Center
01:26PM 32.1533 -96.2111 349° North 414 476 33,000  Level Fort Worth Center
01:27PM 32.2683 -96.2192 357° North 416 479 33,000  Level Fort Worth Center
01:28PM 32.3872 -96.2228 359° North 416 479 33,000  Level Fort Worth Center
01:29PM 32.5019 -96.2211 North 417 480 33,000  Level Fort Worth Center
01:30PM 32.6169 -96.2244 359° North 417 480 33,000  Level Fort Worth Center
01:31PM 32.7297 -96.2256 360° North 408 470 33,000  Level Fort Worth Center
01:32PM 32.8444 -96.2264 360° North 402 463 33,000  Level Fort Worth Center
01:33PM 32.9553 -96.2275 360° North 402 463 33,000  Level Fort Worth Center
01:34PM 33.0636 -96.2286 360° North 402 463 33,000  Level Fort Worth Center
01:35PM 33.1744 -96.2297 360° North 397 457 33,000  Level Fort Worth Center
01:36PM 33.2744 -96.2308 359° North 397 457 33,000  Level Fort Worth Center
01:37PM 33.3936 -96.2342 359° North 392 451 33,000  Level Fort Worth Center
01:38PM 33.4958 -96.2328 North 392 451 33,000  Level Fort Worth Center
01:39PM 33.6147 -96.2211 North 397 457 33,000  Level Fort Worth Center
01:40PM 33.7147 -96.2047 North 402 463 33,000  Level Fort Worth Center
01:41PM 33.8336 -96.1883 North 396 456 33,000  Level Fort Worth Center
01:43PM 33.9375 -96.1666 10° North  Level FlightAware Approximate
01:44PM 34.1689 -96.1333 North 396 456 33,000  Level Fort Worth Center
01:45PM 34.2814 -96.1142 North 403 464 33,000  Level Fort Worth Center
01:46PM 34.3958 -96.0947 North 408 470 33,000  Level Fort Worth Center
01:47PM 34.5106 -96.0753 North 408 470 33,000 -420 Level Fort Worth Center
01:48PM 34.6272 -96.0583 North 408 470 32,200 -900 Descending Fort Worth Center
01:49PM 34.7458 -96.0364 North 418 481 31,200 -1,020 Descending Fort Worth Center
01:50PM 34.6110 -96.0426 North  Level FlightAware Approximate
01:50PM 34.8644 -96.0167 North 423 487 30,200  Level Fort Worth Center
01:51PM 34.9833 -95.9969 North 423 487 29,200 -1,020 Descending Fort Worth Center
01:52PM 35.1039 -95.9747 North 423 487 28,200 -1,560 Descending Fort Worth Center
01:53PM 35.2267 -95.9547 North 428 493 26,100 -2,520 Descending Fort Worth Center
01:54PM 35.3453 -95.9350 North 428 493 23,200 -2,760 Descending Fort Worth Center
01:56PM 35.5506 -95.9203 North 432 497 18,200 -2,880 Descending Kansas City Center
01:57PM 35.6681 -95.9156 North 425 489 14,900 -3,900 Descending Kansas City Center
01:58PM 35.7175 -95.8944 19° North 387 445 12,900 -2,940 Descending Kansas City Center
01:58PM 35.7847 -95.8622 21° North 376 433 12,000 -1,320 Descending Kansas City Center
01:59PM 35.8103 -95.8514 19° North 341 392 11,600 -1,320 Descending Kansas City Center
02:00PM 35.8889 -95.8128 22° Northeast 297 342 10,200 -1,440 Descending Kansas City Center
02:00PM 35.9436 -95.7856 22° Northeast 304 350 9,100 -1,620 Descending Kansas City Center
02:01PM 35.9733 -95.7708 22° Northeast 280 322 8,500 -1,680 Descending Kansas City Center
02:02PM 36.0156 -95.7564 15° North 287 330 7,300 -1,920 Descending Kansas City Center
02:02PM 36.0450 -95.7511 North 260 299 6,600 -2,340 Descending Kansas City Center
02:03PM 36.0864 -95.7431 North 268 308 5,000 -2,340 Descending Kansas City Center
02:03PM 36.1133 -95.7422 North 236 272 4,200 -2,340 Descending Kansas City Center